Time;durP1;ratioP1;P1;durP2;ratioP2;P2;SDS_P1;SDS_P2;PMS_P1;PMS_P2;Temp;Humidity;BMP_temperature;BMP_pressure;BME280_temperature;BME280_humidity;BME280_pressure;Samples;Min_cycle;Max_cycle;Signal;HPM_P1;HPM_P2
2024/03/10 00:01:48;;;;;;;24.42;15.73;;;23.70;46.10;;;;;;6162084;28;84297;-60
2024/03/10 00:04:48;;;;;;;21.17;14.95;;;23.70;45.90;;;;;;6161644;28;83902;-58
2024/03/10 00:07:49;;;;;;;21.92;15.43;;;23.70;46.00;;;;;;6161040;28;85353;-58
2024/03/10 00:10:50;;;;;;;24.50;15.15;;;23.70;46.00;;;;;;6162753;28;83830;-57
2024/03/10 00:13:50;;;;;;;21.50;15.27;;;23.70;45.90;;;;;;6156612;28;83643;-59
2024/03/10 00:16:51;;;;;;;20.75;13.88;;;23.70;46.00;;;;;;6133054;28;83772;-60
2024/03/10 00:19:52;;;;;;;24.70;16.05;;;23.70;46.00;;;;;;6141995;28;84422;-71
2024/03/10 00:22:52;;;;;;;23.75;15.65;;;23.70;46.10;;;;;;6140998;28;83860;-70
2024/03/10 00:25:53;;;;;;;22.42;14.68;;;23.70;46.00;;;;;;6142844;28;84639;-71
2024/03/10 00:28:54;;;;;;;22.80;15.07;;;23.70;46.00;;;;;;6143323;28;84294;-71
2024/03/10 00:31:55;;;;;;;22.35;15.07;;;23.70;46.10;;;;;;6145923;28;86134;-69
2024/03/10 00:34:56;;;;;;;22.65;14.57;;;23.70;46.10;;;;;;6143888;28;84762;-68
2024/03/10 00:37:56;;;;;;;22.13;14.65;;;23.70;46.20;;;;;;6143521;28;83996;-58
2024/03/10 00:40:57;;;;;;;22.75;15.35;;;23.70;46.80;;;;;;6145769;28;84073;-58
2024/03/10 00:43:57;;;;;;;20.85;14.32;;;23.70;46.10;;;;;;6140271;28;86158;-60
2024/03/10 00:46:58;;;;;;;21.95;15.02;;;23.70;46.00;;;;;;6141488;28;84009;-60
2024/03/10 00:49:59;;;;;;;21.60;14.68;;;23.70;46.10;;;;;;6141558;28;84372;-58
2024/03/10 00:53:00;;;;;;;24.35;14.90;;;23.70;46.20;;;;;;6144223;28;84218;-58
2024/03/10 00:56:00;;;;;;;24.60;15.55;;;23.70;46.10;;;;;;6140087;28;84697;-58
2024/03/10 00:59:01;;;;;;;23.33;15.23;;;23.70;46.10;;;;;;6143684;28;84627;-58
2024/03/10 01:02:03;;;;;;;21.15;14.43;;;23.70;45.90;;;;;;6143417;28;84368;-58
2024/03/10 01:05:04;;;;;;;23.50;15.50;;;23.70;45.90;;;;;;6138614;28;84194;-55
2024/03/10 01:08:04;;;;;;;24.17;15.50;;;23.70;45.90;;;;;;6157443;28;83666;-58
2024/03/10 01:11:05;;;;;;;23.10;14.82;;;23.70;45.90;;;;;;6159867;28;83139;-57
2024/03/10 01:14:06;;;;;;;20.08;14.48;;;23.70;45.90;;;;;;6152007;28;84247;-68
2024/03/10 01:17:08;;;;;;;23.98;15.38;;;23.70;45.90;;;;;;6147339;28;84068;-66
2024/03/10 01:20:08;;;;;;;23.90;14.90;;;23.70;45.90;;;;;;6160891;28;85857;-69
2024/03/10 01:23:10;;;;;;;24.45;15.38;;;23.70;45.80;;;;;;6162980;28;83679;-68
2024/03/10 01:26:11;;;;;;;24.52;16.10;;;23.70;45.80;;;;;;6166534;28;87926;-67
2024/03/10 01:29:11;;;;;;;23.45;15.15;;;23.60;45.70;;;;;;6171482;28;83069;-68
2024/03/10 01:32:12;;;;;;;22.38;15.45;;;23.60;45.70;;;;;;6162259;28;84339;-68
2024/03/10 01:35:13;;;;;;;20.13;14.23;;;23.60;45.60;;;;;;6161913;28;83806;-68
2024/03/10 01:38:13;;;;;;;24.67;16.27;;;23.60;45.60;;;;;;6161937;28;84452;-70
2024/03/10 01:41:14;;;;;;;25.02;15.52;;;23.60;45.60;;;;;;6172140;28;83453;-69
2024/03/10 01:44:14;;;;;;;23.42;15.25;;;23.60;45.50;;;;;;6167339;28;83497;-69
2024/03/10 01:47:15;;;;;;;20.10;14.68;;;23.60;45.40;;;;;;6177537;28;83601;-70
2024/03/10 01:50:15;;;;;;;24.00;15.40;;;23.60;45.50;;;;;;6174617;28;83331;-71
2024/03/10 01:53:16;;;;;;;21.38;15.00;;;23.60;45.40;;;;;;6166574;28;83085;-58
2024/03/10 01:56:17;;;;;;;21.45;14.55;;;23.60;45.40;;;;;;6174198;28;83473;-58
2024/03/10 01:59:17;;;;;;;23.40;14.90;;;23.60;45.40;;;;;;6171486;28;83216;-59
2024/03/10 02:02:18;;;;;;;22.00;14.38;;;23.60;45.40;;;;;;6171801;28;85706;-59
2024/03/10 02:05:19;;;;;;;22.05;14.38;;;23.60;45.40;;;;;;6175154;28;85386;-59
2024/03/10 02:08:19;;;;;;;20.25;13.63;;;23.60;45.40;;;;;;6183698;28;82973;-58
2024/03/10 02:11:20;;;;;;;22.15;14.75;;;23.60;45.50;;;;;;6174758;28;83196;-69
2024/03/10 02:14:21;;;;;;;21.40;13.50;;;23.60;45.40;;;;;;6173903;28;82885;-71
2024/03/10 02:17:21;;;;;;;21.73;13.93;;;23.60;45.40;;;;;;6173027;28;82792;-72
2024/03/10 02:20:22;;;;;;;20.67;13.30;;;23.60;45.40;;;;;;6176722;28;84209;-73
2024/03/10 02:23:22;;;;;;;20.35;13.60;;;23.60;45.30;;;;;;6186198;28;83354;-70
2024/03/10 02:26:28;;;;;;;22.90;14.90;;;23.60;45.50;;;;;;6187989;28;83508;-69
2024/03/10 02:29:32;;;;;;;21.50;14.30;;;23.60;45.30;;;;;;6174854;28;83402;-57
2024/03/10 02:49:10;;;;;;;23.30;15.00;;;23.50;45.30;;;;;;6173651;28;90586;-57
2024/03/10 02:52:12;;;;;;;20.33;13.32;;;23.50;45.40;;;;;;6172958;28;84406;-57
2024/03/10 02:55:12;;;;;;;18.52;12.55;;;23.50;45.40;;;;;;6181911;28;85411;-57
2024/03/10 02:58:13;;;;;;;20.13;13.25;;;23.60;45.40;;;;;;6176931;28;84273;-57
2024/03/10 03:01:16;;;;;;;21.15;13.68;;;23.50;45.30;;;;;;6172041;28;84083;-57
2024/03/10 03:04:16;;;;;;;19.83;13.32;;;23.50;45.40;;;;;;6173309;28;83229;-59
2024/03/10 03:07:18;;;;;;;19.80;13.85;;;23.50;45.40;;;;;;6173073;28;83160;-58
2024/03/10 03:10:18;;;;;;;18.15;13.07;;;23.50;45.50;;;;;;6164155;28;86618;-57
2024/03/10 03:13:19;;;;;;;18.92;12.60;;;23.50;45.80;;;;;;6172738;28;84202;-57
2024/03/10 03:16:19;;;;;;;19.92;13.88;;;23.50;45.30;;;;;;6172733;28;83953;-58
2024/03/10 03:19:20;;;;;;;19.52;13.32;;;23.50;45.30;;;;;;6172709;28;83219;-57
2024/03/10 03:22:21;;;;;;;18.65;13.48;;;23.50;45.30;;;;;;6160771;28;83344;-56
2024/03/10 03:25:22;;;;;;;18.60;12.05;;;23.50;45.30;;;;;;6171470;28;83161;-58
2024/03/10 03:28:22;;;;;;;19.08;12.60;;;23.50;45.30;;;;;;6171146;28;82965;-56
2024/03/10 03:31:23;;;;;;;19.10;13.32;;;23.50;45.40;;;;;;6172607;28;84625;-57
2024/03/10 03:34:24;;;;;;;20.33;12.55;;;23.50;45.30;;;;;;6172593;28;83142;-58
2024/03/10 03:37:24;;;;;;;19.08;12.60;;;23.50;45.20;;;;;;6186045;28;83341;-58
2024/03/10 03:40:25;;;;;;;17.00;12.23;;;23.50;45.20;;;;;;6186664;28;83359;-59
2024/03/10 03:43:26;;;;;;;20.05;13.43;;;23.50;45.20;;;;;;6171815;28;83883;-59
2024/03/10 03:46:27;;;;;;;18.60;12.77;;;23.50;45.20;;;;;;6173328;28;83380;-59
2024/03/10 03:49:28;;;;;;;21.65;13.52;;;23.50;45.10;;;;;;6172344;28;83605;-59
2024/03/10 03:52:29;;;;;;;18.98;12.45;;;23.50;45.00;;;;;;6170899;28;83130;-58
2024/03/10 03:55:29;;;;;;;18.65;12.90;;;23.50;45.10;;;;;;6172946;28;83556;-57
2024/03/10 03:58:29;;;;;;;18.33;12.95;;;23.50;45.50;;;;;;6172273;28;82882;-57
2024/03/10 04:01:30;;;;;;;18.42;12.82;;;23.50;45.10;;;;;;6173043;28;83203;-69
2024/03/10 04:04:31;;;;;;;16.33;11.63;;;23.50;45.20;;;;;;6177364;28;83452;-69
2024/03/10 04:07:31;;;;;;;17.63;12.98;;;23.50;45.10;;;;;;6173754;28;82969;-68
2024/03/10 04:10:34;;;;;;;18.33;12.90;;;23.50;45.10;;;;;;6172363;28;83333;-66
2024/03/10 04:13:36;;;;;;;18.70;12.80;;;23.50;45.10;;;;;;6185855;28;83057;-66
2024/03/10 04:16:36;;;;;;;16.63;12.05;;;23.50;45.10;;;;;;6175500;28;83453;-68
2024/03/10 04:19:37;;;;;;;18.13;12.73;;;23.50;45.80;;;;;;6184112;28;82758;-68
2024/03/10 04:22:39;;;;;;;19.00;12.70;;;23.50;45.40;;;;;;6181726;28;83909;-68
2024/03/10 04:25:40;;;;;;;19.02;13.52;;;23.60;45.70;;;;;;6173127;28;83970;-67
2024/03/10 04:28:40;;;;;;;16.52;12.80;;;23.60;45.40;;;;;;6186289;28;83611;-66
2024/03/10 04:31:41;;;;;;;19.60;12.75;;;23.50;45.30;;;;;;6185084;28;83712;-65
2024/03/10 04:34:42;;;;;;;18.30;12.32;;;23.60;45.40;;;;;;6194716;28;84063;-65
2024/03/10 04:37:43;;;;;;;17.95;11.18;;;23.60;45.10;;;;;;6190231;28;83531;-55
2024/03/10 04:40:44;;;;;;;17.75;12.52;;;23.60;45.20;;;;;;6170600;28;83082;-52
2024/03/10 04:43:44;;;;;;;20.95;12.88;;;23.70;44.90;;;;;;6172841;28;83980;-53
2024/03/10 04:46:45;;;;;;;16.88;11.50;;;23.70;44.80;;;;;;6175210;28;84239;-55
2024/03/10 04:49:47;;;;;;;16.50;11.30;;;23.70;45.00;;;;;;6175359;28;82913;-56
2024/03/10 04:52:47;;;;;;;16.10;11.90;;;23.70;44.70;;;;;;6189050;28;83380;-53
2024/03/10 04:55:48;;;;;;;18.27;12.20;;;23.70;44.70;;;;;;6175478;28;86341;-53
2024/03/10 04:58:49;;;;;;;18.52;11.60;;;23.80;44.80;;;;;;6174174;28;83254;-56
2024/03/10 05:01:50;;;;;;;16.75;11.15;;;23.80;44.70;;;;;;6175604;28;83780;-57
2024/03/10 05:04:50;;;;;;;17.25;11.73;;;23.80;44.70;;;;;;6174558;28;83493;-55
2024/03/10 05:07:51;;;;;;;18.83;11.75;;;23.80;44.70;;;;;;6176266;28;83608;-54
2024/03/10 05:10:52;;;;;;;17.67;11.35;;;23.80;44.70;;;;;;6175731;28;83455;-52
2024/03/10 05:13:52;;;;;;;16.85;11.93;;;23.80;45.00;;;;;;6175343;28;83615;-68
2024/03/10 05:16:53;;;;;;;13.77;10.30;;;23.80;45.20;;;;;;6175433;28;84074;-70
2024/03/10 05:19:53;;;;;;;15.45;10.48;;;23.80;45.50;;;;;;6175045;28;83334;-70
2024/03/10 05:22:55;;;;;;;17.60;11.02;;;23.80;45.60;;;;;;6174930;28;83790;-69
2024/03/10 05:25:55;;;;;;;20.45;11.95;;;23.90;45.50;;;;;;6173918;28;87517;-66
2024/03/10 05:28:56;;;;;;;16.65;10.60;;;23.90;45.50;;;;;;6176541;28;83133;-64
2024/03/10 05:31:56;;;;;;;17.88;12.30;;;23.90;45.50;;;;;;6176111;28;86579;-58
2024/03/10 05:34:57;;;;;;;15.75;11.20;;;23.80;45.50;;;;;;6174249;28;83271;-56
2024/03/10 05:37:57;;;;;;;16.08;11.00;;;23.80;45.50;;;;;;6176224;28;83334;-58
2024/03/10 05:40:58;;;;;;;12.90;9.43;;;23.90;45.40;;;;;;6173955;28;83209;-59
2024/03/10 05:43:59;;;;;;;17.20;10.48;;;23.80;45.40;;;;;;6177545;28;82386;-59
2024/03/10 05:46:59;;;;;;;14.13;10.30;;;23.80;45.40;;;;;;6174181;28;83809;-57
2024/03/10 05:50:00;;;;;;;15.07;10.93;;;23.80;45.30;;;;;;6175084;28;84015;-59
2024/03/10 05:53:00;;;;;;;15.88;9.57;;;23.80;45.60;;;;;;6175689;28;83111;-59
2024/03/10 05:56:01;;;;;;;14.38;9.68;;;23.80;46.40;;;;;;6178112;28;83610;-60
2024/03/10 05:59:01;;;;;;;16.13;10.40;;;23.90;46.10;;;;;;6177290;28;81485;-59
2024/03/10 06:02:02;;;;;;;14.80;9.88;;;23.80;45.80;;;;;;6174418;28;83199;-60
2024/03/10 06:05:02;;;;;;;15.27;10.48;;;23.80;45.70;;;;;;6175845;28;82881;-56
2024/03/10 06:08:04;;;;;;;15.13;10.45;;;23.80;45.80;;;;;;6175153;28;83242;-65
2024/03/10 06:11:04;;;;;;;14.30;10.18;;;23.80;45.80;;;;;;6173129;28;83741;-66
2024/03/10 06:14:05;;;;;;;12.77;9.55;;;23.80;46.50;;;;;;6173879;28;85262;-65
2024/03/10 06:17:08;;;;;;;15.10;9.73;;;23.80;46.00;;;;;;6177111;28;83008;-65
2024/03/10 06:26:46;;;;;;;14.20;9.70;;;23.80;45.90;;;;;;6183920;28;83215;-58
2024/03/10 06:29:47;;;;;;;13.90;9.20;;;23.80;46.20;;;;;;6180416;28;83499;-59
2024/03/10 06:32:49;;;;;;;14.57;10.20;;;23.80;46.00;;;;;;6160203;28;81566;-60
2024/03/10 06:35:50;;;;;;;13.35;9.70;;;23.80;45.80;;;;;;6161171;28;86105;-59
2024/03/10 06:38:50;;;;;;;15.77;9.15;;;23.80;45.70;;;;;;6161739;28;83892;-58
2024/03/10 06:41:51;;;;;;;15.48;10.10;;;23.80;46.40;;;;;;6171390;28;83575;-59
2024/03/10 06:44:51;;;;;;;13.50;9.82;;;23.80;46.10;;;;;;6170945;28;83124;-59
2024/03/10 06:47:52;;;;;;;13.90;10.00;;;23.80;46.20;;;;;;6164102;28;83346;-59
2024/03/10 06:50:52;;;;;;;16.70;9.20;;;23.80;46.40;;;;;;6152127;28;83757;-60
2024/03/10 06:53:53;;;;;;;12.23;8.80;;;23.70;46.20;;;;;;6172238;28;83285;-59
2024/03/10 06:56:54;;;;;;;14.68;9.25;;;23.80;46.50;;;;;;6173309;28;81120;-59
2024/03/10 06:59:54;;;;;;;11.30;8.90;;;23.80;46.20;;;;;;6174132;28;82470;-59
2024/03/10 07:02:55;;;;;;;13.93;9.82;;;23.70;46.00;;;;;;6175406;28;80445;-60
2024/03/10 07:06:00;;;;;;;13.27;9.40;;;23.80;46.00;;;;;;6154125;28;80690;-51
2024/03/10 07:09:00;;;;;;;13.98;9.65;;;23.80;45.80;;;;;;6152467;28;81735;-52
2024/03/10 07:12:01;;;;;;;15.02;9.25;;;23.70;45.60;;;;;;6152860;28;83224;-50
2024/03/10 07:15:01;;;;;;;11.80;8.73;;;23.70;45.40;;;;;;6175164;28;80851;-49
2024/03/10 07:18:02;;;;;;;15.18;9.10;;;23.80;45.70;;;;;;6175654;28;80504;-56
2024/03/10 07:21:02;;;;;;;14.55;9.20;;;23.80;45.80;;;;;;6174529;28;81061;-54
2024/03/10 07:24:04;;;;;;;12.85;9.05;;;23.80;46.00;;;;;;6152820;28;85585;-51
2024/03/10 07:27:05;;;;;;;19.50;8.27;;;23.70;45.90;;;;;;6174003;28;80475;-53
2024/03/10 07:30:06;;;;;;;17.15;8.50;;;23.80;45.90;;;;;;6175663;28;80474;-55
2024/03/10 07:33:06;;;;;;;12.35;8.43;;;23.70;46.00;;;;;;6174748;28;80337;-56
2024/03/10 07:36:07;;;;;;;23.10;11.68;;;23.80;45.90;;;;;;6172399;28;81621;-54
2024/03/10 07:39:07;;;;;;;23.27;12.55;;;23.80;46.90;;;;;;6157054;28;83885;-53
2024/03/10 07:42:08;;;;;;;25.15;11.95;;;23.80;47.00;;;;;;6168135;28;83696;-54
2024/03/10 07:45:12;;;;;;;25.85;13.00;;;23.80;46.40;;;;;;6166413;28;82988;-53
2024/03/10 07:48:12;;;;;;;34.55;14.23;;;23.80;46.40;;;;;;6160591;28;83489;-55
2024/03/10 07:51:13;;;;;;;30.85;14.15;;;23.80;47.80;;;;;;6165037;28;82832;-52
2024/03/10 07:54:13;;;;;;;32.88;16.00;;;23.80;47.90;;;;;;6162334;28;83364;-58
2024/03/10 07:57:14;;;;;;;31.48;14.60;;;23.90;48.30;;;;;;6160581;28;83093;-57
2024/03/10 08:00:22;;;;;;;31.35;13.90;;;23.90;48.20;;;;;;6162168;28;83866;-56
2024/03/10 08:03:22;;;;;;;26.60;12.93;;;23.90;48.40;;;;;;6155471;28;86381;-59
2024/03/10 08:06:24;;;;;;;28.27;12.38;;;23.90;48.80;;;;;;6147487;28;83170;-55
2024/03/10 08:09:25;;;;;;;27.20;12.68;;;24.00;48.60;;;;;;6171090;28;83738;-57
2024/03/10 08:12:25;;;;;;;24.85;12.98;;;24.00;48.60;;;;;;6172068;28;83204;-53
2024/03/10 08:15:26;;;;;;;27.08;11.75;;;24.00;48.40;;;;;;6170907;28;83527;-51
2024/03/10 08:18:26;;;;;;;25.80;11.77;;;24.00;48.30;;;;;;6181138;28;83939;-67
2024/03/10 08:21:27;;;;;;;21.48;11.88;;;24.00;48.20;;;;;;6161418;28;83674;-68
2024/03/10 08:24:27;;;;;;;22.83;11.23;;;24.10;48.30;;;;;;6169069;28;85426;-66
2024/03/10 08:27:28;;;;;;;21.92;11.23;;;24.10;48.30;;;;;;6172352;28;84806;-71
2024/03/10 08:30:28;;;;;;;21.38;10.68;;;24.10;48.30;;;;;;6158894;28;83280;-67
2024/03/10 08:33:29;;;;;;;21.30;10.90;;;24.10;48.30;;;;;;6171580;28;83329;-67
2024/03/10 08:36:31;;;;;;;21.90;11.15;;;24.10;48.20;;;;;;6152395;28;83188;-68
2024/03/10 08:39:32;;;;;;;26.00;10.40;;;24.10;48.20;;;;;;6174303;28;83916;-71
2024/03/10 08:42:33;;;;;;;18.10;9.43;;;24.20;48.20;;;;;;6175038;28;83446;-69
2024/03/10 08:45:34;;;;;;;20.77;10.48;;;24.30;48.10;;;;;;6164722;28;82879;-68
2024/03/10 08:48:35;;;;;;;18.23;10.75;;;24.30;48.00;;;;;;6171248;28;83061;-70
2024/03/10 08:51:36;;;;;;;24.02;10.30;;;24.30;48.00;;;;;;6164506;28;84725;-63
2024/03/10 08:54:36;;;;;;;19.77;10.10;;;24.40;47.90;;;;;;6172833;28;87609;-61
2024/03/10 08:57:37;;;;;;;17.23;11.73;;;24.40;47.20;;;;;;6164787;28;83219;-64
2024/03/10 09:00:37;;;;;;;18.27;11.60;;;24.30;45.20;;;;;;6171868;28;83029;-62
2024/03/10 09:03:38;;;;;;;18.33;10.25;;;24.30;43.80;;;;;;6169213;28;83246;-63
2024/03/10 09:06:39;;;;;;;17.30;11.57;;;24.30;44.40;;;;;;6161662;28;85302;-62
2024/03/10 09:09:39;;;;;;;21.77;10.70;;;24.30;44.30;;;;;;6175095;28;83720;-63
2024/03/10 09:12:40;;;;;;;16.25;10.45;;;24.30;43.70;;;;;;6161588;28;84027;-62
2024/03/10 09:15:40;;;;;;;18.30;10.75;;;24.30;42.50;;;;;;6173500;28;83265;-64
2024/03/10 09:18:41;;;;;;;13.80;9.10;;;24.30;43.00;;;;;;6156626;28;83288;-65
2024/03/10 09:21:43;;;;;;;13.85;9.63;;;24.20;43.40;;;;;;6174993;28;82792;-64
2024/03/10 09:24:43;;;;;;;15.38;10.60;;;24.30;43.50;;;;;;6173595;28;81205;-66
2024/03/10 09:27:44;;;;;;;15.75;10.90;;;24.30;42.50;;;;;;6172981;28;83000;-62
2024/03/10 09:30:45;;;;;;;14.60;9.80;;;24.30;41.80;;;;;;6168899;28;88942;-63
2024/03/10 09:33:45;;;;;;;13.48;9.60;;;24.30;42.40;;;;;;6163943;28;83084;-62
2024/03/10 09:36:46;;;;;;;14.85;10.18;;;24.40;42.20;;;;;;6178589;28;80867;-63
2024/03/10 09:39:46;;;;;;;12.90;9.18;;;24.40;41.70;;;;;;6172165;28;83168;-64
2024/03/10 09:42:47;;;;;;;13.93;9.30;;;24.40;41.90;;;;;;6171085;28;82604;-63
2024/03/10 09:45:47;;;;;;;14.40;9.60;;;24.40;42.00;;;;;;6150707;28;84340;-65
2024/03/10 09:48:48;;;;;;;12.75;9.15;;;24.40;42.10;;;;;;6157798;28;81681;-64
2024/03/10 09:51:49;;;;;;;17.38;9.05;;;24.40;41.90;;;;;;6157548;28;82587;-63
2024/03/10 09:54:49;;;;;;;13.10;9.73;;;24.40;42.20;;;;;;6152505;28;81353;-65
2024/03/10 09:57:50;;;;;;;15.07;9.23;;;24.40;42.00;;;;;;6148332;28;81714;-64
2024/03/10 10:00:51;;;;;;;13.45;8.82;;;24.30;41.60;;;;;;6159508;28;81688;-66
2024/03/10 10:03:52;;;;;;;14.20;8.60;;;24.30;42.70;;;;;;6157179;28;85791;-61
2024/03/10 10:06:53;;;;;;;15.35;7.72;;;24.30;43.00;;;;;;6158303;28;81061;-62
2024/03/10 10:09:53;;;;;;;11.65;7.90;;;24.30;44.10;;;;;;6160024;28;81529;-64
2024/03/10 10:12:54;;;;;;;11.48;6.70;;;24.30;45.60;;;;;;6157855;28;81049;-59
2024/03/10 10:15:54;;;;;;;9.52;6.85;;;24.30;46.40;;;;;;6158378;28;81629;-60
2024/03/10 10:18:55;;;;;;;9.40;6.70;;;24.30;47.60;;;;;;6160793;28;81266;-61
2024/03/10 10:21:56;;;;;;;8.43;6.32;;;24.40;48.10;;;;;;6158092;28;81344;-60
2024/03/10 10:24:56;;;;;;;11.80;7.03;;;24.40;48.70;;;;;;6157004;28;81673;-59
2024/03/10 10:27:58;;;;;;;8.45;6.20;;;24.40;49.60;;;;;;6157520;28;81738;-61
2024/03/10 10:30:59;;;;;;;9.77;6.05;;;24.40;49.60;;;;;;6160102;28;81994;-60
2024/03/10 10:34:00;;;;;;;10.27;6.30;;;24.40;50.40;;;;;;6155913;28;81554;-60
2024/03/10 10:37:01;;;;;;;10.80;7.07;;;24.40;51.20;;;;;;6157483;28;82346;-61
2024/03/10 10:40:11;;;;;;;8.55;6.93;;;24.40;51.30;;;;;;6161921;28;81241;-61
2024/03/10 10:43:12;;;;;;;10.50;6.15;;;24.40;51.70;;;;;;6156308;28;82002;-61
2024/03/10 10:46:13;;;;;;;6.82;5.40;;;24.40;51.80;;;;;;6157655;28;83830;-61
2024/03/10 10:49:16;;;;;;;10.48;7.10;;;24.40;52.30;;;;;;6160390;28;81632;-61
2024/03/10 10:52:17;;;;;;;9.60;6.32;;;24.40;52.40;;;;;;6161110;28;82742;-63
2024/03/10 10:55:19;;;;;;;8.23;6.07;;;24.40;52.70;;;;;;6168807;28;81695;-64
2024/03/10 10:58:23;;;;;;;9.70;6.10;;;24.40;52.80;;;;;;6172357;28;81972;-62
2024/03/10 11:01:23;;;;;;;8.43;5.88;;;24.40;53.20;;;;;;6172305;28;80968;-60
2024/03/10 11:04:24;;;;;;;6.82;5.05;;;24.40;53.10;;;;;;6169894;28;80689;-61
2024/03/10 11:07:24;;;;;;;9.18;5.78;;;24.40;53.60;;;;;;6173674;28;88470;-64
2024/03/10 11:10:25;;;;;;;6.78;4.90;;;24.50;53.60;;;;;;6174928;28;80437;-59
2024/03/10 11:13:26;;;;;;;7.43;5.05;;;24.50;53.70;;;;;;6178850;28;80975;-59
2024/03/10 11:16:27;;;;;;;10.23;5.50;;;24.50;53.90;;;;;;6176727;28;83120;-64
2024/03/10 11:19:29;;;;;;;5.32;4.47;;;24.50;54.20;;;;;;6175047;28;81242;-61
2024/03/10 11:22:32;;;;;;;8.25;5.25;;;24.50;54.30;;;;;;6170518;28;80441;-68
2024/03/10 11:25:32;;;;;;;9.30;5.85;;;24.50;54.20;;;;;;6169877;28;81367;-66
2024/03/10 11:28:33;;;;;;;8.23;4.90;;;24.40;54.50;;;;;;6176365;28;83689;-60
2024/03/10 11:31:35;;;;;;;7.72;5.10;;;24.40;54.70;;;;;;6173421;28;80304;-61
2024/03/10 11:34:37;;;;;;;8.07;5.13;;;24.40;55.10;;;;;;6177540;28;81269;-61
2024/03/10 11:37:37;;;;;;;7.38;5.25;;;24.40;55.30;;;;;;6169830;28;82090;-63
2024/03/10 11:40:40;;;;;;;6.88;4.85;;;24.50;56.10;;;;;;6165841;28;81344;-64
2024/03/10 11:43:46;;;;;;;7.78;4.75;;;24.50;56.40;;;;;;6169094;28;83681;-66
2024/03/10 11:46:46;;;;;;;5.90;4.18;;;24.50;56.30;;;;;;6174771;28;80864;-65
2024/03/10 11:49:47;;;;;;;7.85;4.05;;;24.50;56.80;;;;;;6157830;28;80855;-66
2024/03/10 11:52:48;;;;;;;9.05;4.38;;;24.50;56.90;;;;;;6177760;28;81231;-64
2024/03/10 11:55:49;;;;;;;7.03;4.60;;;24.50;56.90;;;;;;6174427;28;81877;-64
2024/03/10 11:58:49;;;;;;;9.85;4.38;;;24.50;56.70;;;;;;6176994;28;80571;-67
2024/03/10 12:01:50;;;;;;;7.65;4.55;;;24.50;56.90;;;;;;6163287;28;83374;-66
2024/03/10 12:04:54;;;;;;;4.93;3.88;;;24.50;56.60;;;;;;6160457;28;80410;-65
2024/03/10 12:07:55;;;;;;;5.10;3.72;;;24.50;56.90;;;;;;6157146;28;81413;-63
2024/03/10 12:10:56;;;;;;;7.10;4.80;;;24.50;57.10;;;;;;6165499;28;80694;-64
2024/03/10 12:13:56;;;;;;;6.22;3.70;;;24.50;57.20;;;;;;6177411;28;81461;-68
2024/03/10 12:16:57;;;;;;;5.82;3.90;;;24.50;57.00;;;;;;6176536;28;81998;-55
2024/03/10 12:19:58;;;;;;;6.88;4.38;;;24.50;56.90;;;;;;6177827;28;80491;-52
2024/03/10 12:22:58;;;;;;;9.40;3.95;;;24.50;56.70;;;;;;6170405;28;80201;-52
2024/03/10 12:25:59;;;;;;;5.57;4.05;;;24.60;56.60;;;;;;6170989;28;80668;-51
2024/03/10 12:28:59;;;;;;;6.20;3.63;;;24.60;57.00;;;;;;6171299;28;81633;-54
2024/03/10 12:32:00;;;;;;;4.38;3.40;;;24.60;56.70;;;;;;6167361;28;80971;-50
2024/03/10 12:35:01;;;;;;;6.15;3.80;;;24.60;56.70;;;;;;6164702;28;82040;-64
2024/03/10 12:38:02;;;;;;;5.47;3.70;;;24.50;56.20;;;;;;6169567;28;81490;-59
2024/03/10 12:41:02;;;;;;;5.20;3.45;;;24.50;55.90;;;;;;6176232;28;81471;-62
2024/03/10 12:44:03;;;;;;;4.75;3.05;;;24.50;56.30;;;;;;6176037;28;80592;-62
2024/03/10 12:47:03;;;;;;;4.75;3.50;;;24.50;56.90;;;;;;6175002;28;80449;-61
2024/03/10 12:50:07;;;;;;;9.60;3.53;;;24.50;56.70;;;;;;6171142;28;83621;-61
2024/03/10 12:53:08;;;;;;;4.88;3.08;;;24.50;56.60;;;;;;6165635;28;80480;-60
2024/03/10 12:56:16;;;;;;;5.22;3.88;;;24.50;56.90;;;;;;6158849;28;80516;-59
2024/03/10 12:59:17;;;;;;;6.22;3.92;;;24.50;57.40;;;;;;6158533;28;80919;-59
2024/03/10 13:02:17;;;;;;;6.50;3.65;;;24.50;57.70;;;;;;6167528;28;83752;-56
2024/03/10 13:05:18;;;;;;;5.85;3.85;;;24.10;53.40;;;;;;6156228;28;80606;-57
2024/03/10 13:08:18;;;;;;;5.13;3.58;;;23.40;46.30;;;;;;6180522;28;80519;-56
2024/03/10 13:11:23;;;;;;;7.32;3.88;;;23.00;45.20;;;;;;6178548;28;80279;-56
2024/03/10 13:14:24;;;;;;;5.35;3.47;;;23.00;45.90;;;;;;6163293;28;81200;-58
2024/03/10 13:17:25;;;;;;;5.72;3.50;;;22.50;44.30;;;;;;6173929;28;82078;-59
2024/03/10 13:20:25;;;;;;;6.93;3.00;;;22.30;44.90;;;;;;6172794;28;83633;-59
2024/03/10 13:23:26;;;;;;;7.75;3.40;;;22.00;45.00;;;;;;6167418;28;83672;-60
2024/03/10 13:26:26;;;;;;;5.03;3.60;;;22.00;45.30;;;;;;6171963;28;81745;-56
2024/03/10 13:29:27;;;;;;;6.05;4.05;;;21.80;44.50;;;;;;6170425;28;80221;-49
2024/03/10 13:32:27;;;;;;;5.40;3.75;;;21.70;45.10;;;;;;6170703;28;80648;-46
2024/03/10 13:35:29;;;;;;;5.32;4.05;;;21.70;45.10;;;;;;6170353;28;81779;-50
2024/03/10 13:38:29;;;;;;;6.63;3.88;;;21.60;45.10;;;;;;6177348;28;81311;-46
2024/03/10 13:41:30;;;;;;;6.57;3.70;;;21.80;46.40;;;;;;6178193;28;80747;-52
2024/03/10 13:44:30;;;;;;;6.22;3.55;;;22.20;47.20;;;;;;6178193;28;81344;-49
2024/03/10 13:47:31;;;;;;;5.32;3.42;;;22.50;47.70;;;;;;6174089;28;82394;-56
2024/03/10 13:50:31;;;;;;;4.18;3.28;;;22.70;48.10;;;;;;6175017;28;83117;-51
2024/03/10 13:53:32;;;;;;;6.78;3.60;;;22.80;48.70;;;;;;6176387;28;80527;-54
2024/03/10 13:56:33;;;;;;;6.85;3.63;;;22.90;48.80;;;;;;6166315;28;80584;-49
2024/03/10 13:59:34;;;;;;;7.85;3.88;;;23.00;49.10;;;;;;6168585;28;82037;-50
2024/03/10 14:02:34;;;;;;;5.78;3.85;;;23.10;49.60;;;;;;6177285;28;80662;-53
2024/03/10 14:05:36;;;;;;;4.03;3.10;;;23.20;49.30;;;;;;6164672;28;81073;-55
2024/03/10 14:08:37;;;;;;;9.20;3.92;;;23.20;49.20;;;;;;6178704;28;80884;-55
2024/03/10 14:11:37;;;;;;;8.70;4.00;;;23.30;49.30;;;;;;6177758;28;80424;-49
2024/03/10 14:14:39;;;;;;;11.25;4.10;;;23.30;49.80;;;;;;6176682;28;83226;-53
2024/03/10 14:17:39;;;;;;;5.38;4.03;;;23.30;49.20;;;;;;6178435;28;80343;-51
2024/03/10 14:20:40;;;;;;;10.23;3.88;;;23.30;49.60;;;;;;6167000;28;83531;-52
2024/03/10 14:23:41;;;;;;;8.20;3.40;;;23.30;49.50;;;;;;6154602;28;80664;-52
2024/03/10 14:26:44;;;;;;;7.47;3.78;;;23.40;49.50;;;;;;6149133;28;82709;-62
2024/03/10 14:29:45;;;;;;;7.28;3.40;;;23.40;49.60;;;;;;6171382;28;82990;-59
2024/03/10 14:32:45;;;;;;;8.80;3.55;;;23.40;49.60;;;;;;6179819;28;81624;-60
2024/03/10 14:35:46;;;;;;;6.07;3.10;;;23.40;50.20;;;;;;6179600;28;80630;-60
2024/03/10 14:38:47;;;;;;;7.88;3.30;;;23.40;50.10;;;;;;6177907;28;80921;-60
2024/03/10 14:41:47;;;;;;;5.68;3.72;;;23.40;48.20;;;;;;6175479;28;80298;-59
2024/03/10 14:44:48;;;;;;;5.18;3.47;;;23.40;49.90;;;;;;6168033;28;81109;-55
2024/03/10 14:47:51;;;;;;;3.97;3.30;;;23.40;50.40;;;;;;6178110;28;80368;-52
2024/03/10 14:50:53;;;;;;;4.55;2.95;;;23.50;49.90;;;;;;6178102;28;80871;-55
2024/03/10 14:53:56;;;;;;;8.45;2.67;;;23.50;49.80;;;;;;6179792;28;82204;-52
2024/03/10 14:56:56;;;;;;;4.28;3.08;;;23.50;49.30;;;;;;6172958;28;83536;-55
2024/03/10 15:00:01;;;;;;;4.10;3.08;;;23.50;48.70;;;;;;6171798;28;81845;-54
2024/03/10 15:03:02;;;;;;;6.03;3.35;;;23.50;48.40;;;;;;6178689;28;80754;-61
2024/03/10 15:06:02;;;;;;;3.80;3.20;;;23.50;48.00;;;;;;6165998;28;80249;-62
2024/03/10 15:09:05;;;;;;;4.13;3.10;;;23.50;48.00;;;;;;6178857;28;80670;-61
2024/03/10 15:12:06;;;;;;;4.65;3.38;;;23.50;47.90;;;;;;6175063;28;81455;-62
2024/03/10 15:15:07;;;;;;;5.35;3.40;;;23.50;47.70;;;;;;6179799;28;80217;-61
2024/03/10 15:18:10;;;;;;;4.38;3.33;;;23.60;47.70;;;;;;6172229;28;81021;-61
2024/03/10 15:21:11;;;;;;;4.47;3.10;;;23.60;47.60;;;;;;6170886;28;80208;-52
2024/03/10 15:24:14;;;;;;;4.35;3.22;;;23.60;47.50;;;;;;6174923;28;80810;-59
2024/03/10 15:27:14;;;;;;;10.25;3.92;;;23.60;47.30;;;;;;6178116;28;80947;-60
2024/03/10 15:30:14;;;;;;;7.35;3.65;;;23.60;47.30;;;;;;6166485;28;80748;-61
2024/03/10 15:33:16;;;;;;;7.07;3.35;;;23.60;47.20;;;;;;6176128;28;80225;-57
2024/03/10 15:36:16;;;;;;;4.63;3.70;;;23.70;47.30;;;;;;6169590;28;80277;-60
2024/03/10 15:39:24;;;;;;;5.40;3.58;;;23.70;47.30;;;;;;6172341;28;81036;-60
2024/03/10 15:42:25;;;;;;;11.60;3.83;;;23.70;47.40;;;;;;6175488;28;81157;-61
2024/03/10 15:45:26;;;;;;;5.15;3.50;;;23.70;47.80;;;;;;6176176;28;80071;-65
2024/03/10 15:48:26;;;;;;;8.98;4.38;;;23.70;47.40;;;;;;6176386;28;80878;-62
2024/03/10 15:51:27;;;;;;;6.80;3.78;;;23.70;47.40;;;;;;6174900;28;80848;-62